createdAt,value
2023-05-17T00:00:47.538Z,20.08
2023-05-17T00:03:25.373Z,20.18
2023-05-17T00:06:00.373Z,20.21
2023-05-17T00:08:34.913Z,20.15
2023-05-17T00:11:13.730Z,20.07
2023-05-17T00:13:48.712Z,20.11
2023-05-17T00:16:27.366Z,20.21
2023-05-17T00:19:02.035Z,20.31
2023-05-17T00:21:36.514Z,20.34
2023-05-17T00:24:15.162Z,20.34
2023-05-17T00:26:49.423Z,20.35
2023-05-17T00:29:23.664Z,20.36
2023-05-17T00:31:57.562Z,20.29
2023-05-17T00:34:30.763Z,20.20
2023-05-17T00:37:07.168Z,20.11
2023-05-17T00:39:43.663Z,20.04
2023-05-17T00:42:17.369Z,19.95
2023-05-17T00:44:50.114Z,19.91
2023-05-17T00:47:28.454Z,19.83
2023-05-17T00:50:11.610Z,19.77
2023-05-17T00:52:49.145Z,19.73
2023-05-17T00:55:31.087Z,19.70
2023-05-17T00:58:04.035Z,19.64
2023-05-17T01:00:37.505Z,19.59
2023-05-17T01:03:09.700Z,19.53
2023-05-17T01:05:42.402Z,19.59
2023-05-17T01:08:15.608Z,19.69
2023-05-17T01:11:28.400Z,19.73
2023-05-17T01:14:29.748Z,19.67
2023-05-17T01:17:29.790Z,19.66
2023-05-17T01:20:18.737Z,19.84
2023-05-17T01:23:35.619Z,19.67
2023-05-17T01:26:47.018Z,19.66
2023-05-17T01:29:23.950Z,19.64
2023-05-17T01:31:57.605Z,19.60
2023-05-17T01:34:31.984Z,19.56
2023-05-17T01:37:06.406Z,19.62
2023-05-17T01:39:38.985Z,19.56
2023-05-17T01:42:34.610Z,19.62
2023-05-17T01:45:17.754Z,19.53
2023-05-17T01:48:11.739Z,19.50
2023-05-17T01:50:45.420Z,19.37
2023-05-17T01:53:45.729Z,19.39
2023-05-17T01:56:30.083Z,19.34
2023-05-17T01:59:09.597Z,19.27
2023-05-17T02:01:43.269Z,19.15
2023-05-17T02:04:19.904Z,19.23
2023-05-17T02:06:57.462Z,19.20
2023-05-17T02:09:28.786Z,19.18
2023-05-17T02:12:01.148Z,19.15
2023-05-17T02:14:32.452Z,19.06
2023-05-17T02:17:04.109Z,19.09
2023-05-17T02:19:37.684Z,19.06
2023-05-17T02:22:12.550Z,19.18
2023-05-17T02:24:45.806Z,19.06
2023-05-17T02:27:17.642Z,18.98
2023-05-17T02:29:47.995Z,18.92
2023-05-17T02:32:18.551Z,18.91
2023-05-17T02:34:48.938Z,18.95
2023-05-17T02:37:20.713Z,18.92
2023-05-17T02:39:51.870Z,18.89
2023-05-17T02:42:22.690Z,18.84
2023-05-17T02:44:55.536Z,18.82
2023-05-17T02:47:27.329Z,18.81
2023-05-17T02:49:58.109Z,18.79
2023-05-17T02:52:31.968Z,18.82
2023-05-17T02:55:04.075Z,18.78
2023-05-17T02:57:35.042Z,18.79
2023-05-17T03:00:09.021Z,18.82
2023-05-17T03:02:40.603Z,18.75
2023-05-17T03:05:15.081Z,18.72
2023-05-17T03:07:52.500Z,18.67
2023-05-17T03:10:23.364Z,18.68
2023-05-17T03:12:54.072Z,18.67
2023-05-17T03:15:29.450Z,18.67
2023-05-17T03:18:01.995Z,18.57
2023-05-17T03:20:33.604Z,18.55
2023-05-17T03:23:04.850Z,18.49
2023-05-17T03:25:40.011Z,18.47
2023-05-17T03:28:10.585Z,18.37
2023-05-17T03:30:42.517Z,18.33
2023-05-17T03:33:13.496Z,18.36
2023-05-17T03:35:43.746Z,18.21
2023-05-17T03:38:15.328Z,18.20
2023-05-17T03:40:46.652Z,18.18
2023-05-17T03:43:18.067Z,18.16
2023-05-17T03:45:49.701Z,18.16
2023-05-17T03:48:21.291Z,18.17
2023-05-17T03:50:51.818Z,18.16
2023-05-17T03:53:22.118Z,18.16
2023-05-17T03:55:53.309Z,18.16
2023-05-17T03:58:25.338Z,18.11
2023-05-17T04:00:55.999Z,18.06
2023-05-17T04:03:26.383Z,18.04
2023-05-17T04:06:03.096Z,18.00
2023-05-17T04:08:33.325Z,18.04
2023-05-17T04:11:11.632Z,18.06
2023-05-17T04:13:44.148Z,18.04
2023-05-17T04:16:15.872Z,18.06
2023-05-17T04:18:47.144Z,18.04
2023-05-17T04:21:18.336Z,18.04
2023-05-17T04:23:50.354Z,18.04
2023-05-17T04:26:21.915Z,17.98
2023-05-17T04:28:52.509Z,18.01
2023-05-17T04:31:23.872Z,18.00
2023-05-17T04:33:55.379Z,18.00
2023-05-17T04:36:26.566Z,18.00
2023-05-17T04:38:58.304Z,17.98
2023-05-17T04:41:33.885Z,17.96
2023-05-17T04:44:09.023Z,17.91
2023-05-17T04:46:39.699Z,17.91
2023-05-17T04:49:10.970Z,17.89
2023-05-17T04:51:42.844Z,17.89
2023-05-17T04:54:14.235Z,17.77
2023-05-17T04:56:44.652Z,17.72
2023-05-17T04:59:20.529Z,17.69
2023-05-17T05:01:51.060Z,17.70
2023-05-17T05:04:23.140Z,17.69
2023-05-17T05:06:55.346Z,17.63
2023-05-17T05:09:27.640Z,17.65
2023-05-17T05:11:59.308Z,17.53
2023-05-17T05:14:30.720Z,17.47
2023-05-17T05:17:01.812Z,17.36
2023-05-17T05:19:33.167Z,17.32
2023-05-17T05:22:04.710Z,17.26
2023-05-17T05:24:36.223Z,17.22
2023-05-17T05:27:39.083Z,17.23
2023-05-17T05:30:10.342Z,17.05
2023-05-17T05:32:41.300Z,17.08
2023-05-17T05:35:13.214Z,17.01
2023-05-17T05:37:45.037Z,17.00
2023-05-17T05:40:16.568Z,16.92
2023-05-17T05:42:48.237Z,16.87
2023-05-17T05:45:18.728Z,16.89
2023-05-17T05:47:52.195Z,16.84
2023-05-17T05:50:22.937Z,16.80
2023-05-17T05:53:07.099Z,16.78
2023-05-17T05:55:51.934Z,16.77
2023-05-17T05:58:30.811Z,16.67
2023-05-17T06:01:04.104Z,16.63
2023-05-17T06:03:36.574Z,16.63
2023-05-17T06:06:08.014Z,16.60
2023-05-17T06:08:39.069Z,16.54
2023-05-17T06:11:10.558Z,16.51
2023-05-17T06:13:41.775Z,16.50
2023-05-17T06:16:11.979Z,16.51
2023-05-17T06:18:42.670Z,16.40
2023-05-17T06:21:14.880Z,16.43
2023-05-17T06:23:45.396Z,16.39
2023-05-17T06:26:16.732Z,16.41
2023-05-17T06:28:47.540Z,16.31
2023-05-17T06:31:19.723Z,16.24
2023-05-17T06:33:52.049Z,16.27
2023-05-17T06:36:22.574Z,16.17
2023-05-17T06:38:52.762Z,16.20
2023-05-17T06:41:24.235Z,16.13
2023-05-17T06:43:54.728Z,16.12
2023-05-17T06:46:24.939Z,16.05
2023-05-17T06:48:55.593Z,16.02
2023-05-17T06:51:27.210Z,15.99
2023-05-17T06:53:58.939Z,15.98
2023-05-17T06:56:30.181Z,15.96
2023-05-17T06:59:02.103Z,15.93
2023-05-17T07:01:33.037Z,15.90
2023-05-17T07:04:05.845Z,15.90
2023-05-17T07:06:37.060Z,15.86
2023-05-17T07:09:07.638Z,15.85
2023-05-17T07:11:41.567Z,15.82
2023-05-17T07:14:13.302Z,15.78
2023-05-17T07:16:44.322Z,15.83
2023-05-17T07:19:15.742Z,15.79
2023-05-17T07:21:46.528Z,15.72
2023-05-17T07:24:17.601Z,15.73
2023-05-17T07:26:51.478Z,15.66
2023-05-17T07:29:23.303Z,15.58
2023-05-17T07:31:53.953Z,15.52
2023-05-17T07:34:25.095Z,15.51
2023-05-17T07:36:56.319Z,15.59
2023-05-17T07:39:27.796Z,15.58
2023-05-17T07:41:58.745Z,15.59
2023-05-17T07:44:29.022Z,15.54
2023-05-17T07:47:00.909Z,15.55
2023-05-17T07:49:33.649Z,15.51
2023-05-17T07:52:04.969Z,15.54
2023-05-17T07:54:36.206Z,15.42
2023-05-17T07:57:06.800Z,15.39
2023-05-17T07:59:37.048Z,15.37
2023-05-17T08:02:09.265Z,15.37
2023-05-17T08:04:41.328Z,15.30
2023-05-17T08:07:12.010Z,15.27
2023-05-17T08:09:45.980Z,15.23
2023-05-17T08:12:16.213Z,15.20
2023-05-17T08:14:46.467Z,15.15
2023-05-17T08:17:17.561Z,15.17
2023-05-17T08:19:49.020Z,15.10
2023-05-17T08:22:20.453Z,15.10
2023-05-17T08:24:52.182Z,15.03
2023-05-17T08:27:23.545Z,14.97
2023-05-17T08:29:56.334Z,14.95
2023-05-17T08:32:28.391Z,14.95
2023-05-17T08:35:02.337Z,14.84
2023-05-17T08:37:33.483Z,14.72
2023-05-17T08:40:04.799Z,14.69
2023-05-17T08:42:36.843Z,14.74
2023-05-17T08:45:10.682Z,14.80
2023-05-17T08:47:46.069Z,14.70
2023-05-17T08:50:17.568Z,14.72
2023-05-17T08:52:49.109Z,14.67
2023-05-17T08:55:21.275Z,14.63
2023-05-17T08:57:53.052Z,14.63
2023-05-17T09:00:28.564Z,14.53
2023-05-17T09:03:00.227Z,14.56
2023-05-17T09:05:31.766Z,14.56
2023-05-17T09:08:02.317Z,14.59
2023-05-17T09:10:33.028Z,14.52
2023-05-17T09:13:04.071Z,14.46
2023-05-17T09:15:36.375Z,14.46
2023-05-17T09:18:07.379Z,14.43
2023-05-17T09:20:39.203Z,14.42
2023-05-17T09:23:12.682Z,14.42
2023-05-17T09:25:52.938Z,14.44
2023-05-17T09:28:23.802Z,14.44
2023-05-17T09:30:54.711Z,14.47
2023-05-17T09:33:26.439Z,14.50
2023-05-17T09:35:57.478Z,14.44
2023-05-17T09:38:32.248Z,14.46
2023-05-17T09:41:04.835Z,14.44
2023-05-17T09:43:35.309Z,14.40
2023-05-17T09:46:06.181Z,14.47
2023-05-17T09:48:41.577Z,14.49
2023-05-17T09:51:12.676Z,14.49
2023-05-17T09:53:44.649Z,14.47
2023-05-17T09:56:15.953Z,14.59
2023-05-17T09:58:48.010Z,14.57
2023-05-17T10:01:20.302Z,14.56
2023-05-17T10:03:53.521Z,14.53
2023-05-17T10:06:44.523Z,14.59
2023-05-17T10:09:17.190Z,14.63
2023-05-17T10:11:49.170Z,14.64
2023-05-17T10:14:24.699Z,14.64
2023-05-17T10:16:56.802Z,14.62
2023-05-17T10:19:29.392Z,14.67
2023-05-17T10:22:18.270Z,14.67
2023-05-17T10:24:53.778Z,14.73
2023-05-17T10:27:25.274Z,14.80
2023-05-17T10:29:57.749Z,15.20
2023-05-17T10:32:32.268Z,15.52
2023-05-17T10:35:11.195Z,17.72
2023-05-17T10:37:43.645Z,18.01
2023-05-17T10:40:20.144Z,17.05
2023-05-17T10:42:54.283Z,18.03
2023-05-17T10:45:27.563Z,18.14
2023-05-17T10:48:01.040Z,17.11
2023-05-17T10:50:32.454Z,17.23
2023-05-17T10:53:02.743Z,17.40
2023-05-17T10:55:41.558Z,17.11
2023-05-17T10:58:17.489Z,16.85
2023-05-17T11:00:56.779Z,16.82
2023-05-17T11:03:32.234Z,17.23
2023-05-17T11:06:24.373Z,17.56
2023-05-17T11:09:16.613Z,18.54
2023-05-17T11:12:06.715Z,21.16
2023-05-17T11:14:58.595Z,21.95
2023-05-17T11:17:45.603Z,21.84
2023-05-17T11:20:28.768Z,20.92
2023-05-17T11:23:18.891Z,20.17
2023-05-17T11:25:54.151Z,19.78
2023-05-17T11:28:24.871Z,19.84
2023-05-17T11:31:03.459Z,19.95
2023-05-17T11:33:48.705Z,20.08
2023-05-17T11:36:25.898Z,20.20
2023-05-17T11:39:16.829Z,20.26
2023-05-17T11:42:06.608Z,20.48
2023-05-17T11:44:39.867Z,20.59
2023-05-17T11:47:11.863Z,20.72
2023-05-17T11:49:44.145Z,20.86
2023-05-17T11:52:19.333Z,20.93
2023-05-17T11:54:51.737Z,21.29
2023-05-17T11:57:24.204Z,21.23
2023-05-17T12:00:06.342Z,21.41
2023-05-17T12:02:43.609Z,21.58
2023-05-17T12:05:22.030Z,21.57
2023-05-17T12:07:54.371Z,21.81
2023-05-17T12:10:25.843Z,21.91
2023-05-17T12:12:56.253Z,21.91
2023-05-17T12:15:27.920Z,21.95
2023-05-17T12:17:59.134Z,22.12
2023-05-17T12:20:30.978Z,22.29
2023-05-17T12:23:01.802Z,22.32
2023-05-17T12:25:33.395Z,22.43
2023-05-17T12:28:24.784Z,22.56
2023-05-17T12:30:59.564Z,22.51
2023-05-17T12:33:35.659Z,22.67
2023-05-17T12:36:07.489Z,22.77
2023-05-17T12:38:39.898Z,22.90
2023-05-17T12:41:16.377Z,22.90
2023-05-17T12:43:48.222Z,22.96
2023-05-17T12:46:23.717Z,23.07
2023-05-17T12:48:55.372Z,22.94
2023-05-17T12:51:26.560Z,22.96
2023-05-17T12:54:01.946Z,23.11
2023-05-17T12:56:33.279Z,23.06
2023-05-17T12:59:18.422Z,23.18
2023-05-17T13:01:54.296Z,23.43
2023-05-17T13:04:36.778Z,23.37
2023-05-17T13:07:09.308Z,23.44
2023-05-17T13:09:52.207Z,23.45
2023-05-17T13:12:29.472Z,23.41
2023-05-17T13:15:01.053Z,23.48
2023-05-17T13:17:42.687Z,23.67
2023-05-17T13:20:13.918Z,23.75
2023-05-17T13:22:52.257Z,23.89
2023-05-17T13:25:24.347Z,23.81
2023-05-17T13:28:01.077Z,23.84
2023-05-17T13:30:33.441Z,23.76
2023-05-17T13:33:04.009Z,23.72
2023-05-17T13:35:40.847Z,24.05
2023-05-17T13:38:12.341Z,23.79
2023-05-17T13:41:11.493Z,23.68
2023-05-17T13:43:43.687Z,23.72
2023-05-17T13:46:15.168Z,23.78
2023-05-17T13:48:47.387Z,23.78
2023-05-17T13:51:18.132Z,23.85
2023-05-17T13:53:49.353Z,23.82
2023-05-17T13:56:20.132Z,23.82
2023-05-17T13:58:54.190Z,23.82
2023-05-17T14:01:25.519Z,23.86
2023-05-17T14:04:00.416Z,23.88
2023-05-17T14:06:33.214Z,23.90
2023-05-17T14:09:06.191Z,23.95
2023-05-17T14:11:38.210Z,23.86
2023-05-17T14:14:09.635Z,24.02
2023-05-17T14:16:44.115Z,24.10
2023-05-17T14:19:17.678Z,24.22
2023-05-17T14:21:49.984Z,24.04
2023-05-17T14:24:21.285Z,24.02
2023-05-17T14:26:54.738Z,24.04
2023-05-17T14:29:26.695Z,24.18
2023-05-17T14:31:57.087Z,24.08
2023-05-17T14:34:28.850Z,24.08
2023-05-17T14:37:01.587Z,24.19
2023-05-17T14:39:32.765Z,24.09
2023-05-17T14:42:04.562Z,24.06
2023-05-17T14:44:40.266Z,24.20
2023-05-17T14:47:10.750Z,24.18
2023-05-17T14:49:41.889Z,24.08
2023-05-17T14:52:16.335Z,24.18
2023-05-17T14:54:47.190Z,24.22
2023-05-17T14:57:18.943Z,24.25
2023-05-17T14:59:50.907Z,24.30
2023-05-17T15:02:21.354Z,24.43
2023-05-17T15:04:51.711Z,24.26
2023-05-17T15:07:22.308Z,24.26
2023-05-17T15:09:54.611Z,24.25
2023-05-17T15:12:28.102Z,24.32
2023-05-17T15:14:58.824Z,24.40
2023-05-17T15:17:30.224Z,24.35
2023-05-17T15:20:02.122Z,24.18
2023-05-17T15:22:33.369Z,24.18
2023-05-17T15:25:04.869Z,24.05
2023-05-17T15:27:37.318Z,24.19
2023-05-17T15:30:11.297Z,24.16
2023-05-17T15:32:44.212Z,24.26
2023-05-17T15:35:14.933Z,24.30
2023-05-17T15:37:46.249Z,24.32
2023-05-17T15:40:19.043Z,24.30
2023-05-17T15:42:50.712Z,24.23
2023-05-17T15:45:23.508Z,24.25
2023-05-17T15:47:55.026Z,24.32
2023-05-17T15:50:28.412Z,24.35
2023-05-17T15:53:00.173Z,24.30
2023-05-17T15:55:32.735Z,24.32
2023-05-17T15:58:03.788Z,24.23
2023-05-17T16:00:36.941Z,24.35
2023-05-17T16:03:08.170Z,24.39
2023-05-17T16:05:38.735Z,24.30
2023-05-17T16:08:11.522Z,24.20
2023-05-17T16:10:42.599Z,24.18
2023-05-17T16:13:16.338Z,24.28
2023-05-17T16:15:48.653Z,24.30
2023-05-17T16:18:20.918Z,24.29
2023-05-17T16:21:02.989Z,24.36
2023-05-17T16:23:34.707Z,24.33
2023-05-17T16:26:06.629Z,24.26
2023-05-17T16:28:38.324Z,24.35
2023-05-17T16:31:08.821Z,24.30
2023-05-17T16:33:39.846Z,24.33
2023-05-17T16:36:10.577Z,24.29
2023-05-17T16:38:41.426Z,24.29
2023-05-17T16:41:18.867Z,24.28
2023-05-17T16:43:50.589Z,24.44
2023-05-17T16:46:23.507Z,24.35
2023-05-17T16:48:57.357Z,24.26
2023-05-17T16:51:29.133Z,24.13
2023-05-17T16:54:00.270Z,24.16
2023-05-17T16:56:31.076Z,24.20
2023-05-17T16:59:02.139Z,24.08
2023-05-17T17:01:32.771Z,24.10
2023-05-17T17:04:03.213Z,24.01
2023-05-17T17:06:35.361Z,24.13
2023-05-17T17:09:09.178Z,24.08
2023-05-17T17:11:40.036Z,24.09
2023-05-17T17:14:11.546Z,24.02
2023-05-17T17:16:43.828Z,23.96
2023-05-17T17:19:15.312Z,23.95
2023-05-17T17:21:47.333Z,23.96
2023-05-17T17:24:18.451Z,23.94
2023-05-17T17:26:52.062Z,23.98
2023-05-17T17:29:22.753Z,23.95
2023-05-17T17:31:53.635Z,23.88
2023-05-17T17:34:24.980Z,23.89
2023-05-17T17:36:56.370Z,23.85
2023-05-17T17:39:27.093Z,23.88
2023-05-17T17:41:58.187Z,23.81
2023-05-17T17:44:28.574Z,23.79
2023-05-17T17:46:59.685Z,23.75
2023-05-17T17:49:31.456Z,23.72
2023-05-17T17:52:02.522Z,23.67
2023-05-17T17:54:33.140Z,23.67
2023-05-17T17:57:04.647Z,23.65
2023-05-17T17:59:35.269Z,23.65
2023-05-17T18:02:05.529Z,23.59
2023-05-17T18:04:36.971Z,23.58
2023-05-17T18:07:08.777Z,23.55
2023-05-17T18:09:40.161Z,23.54
2023-05-17T18:12:10.722Z,23.57
2023-05-17T18:14:42.330Z,23.47
2023-05-17T18:17:14.400Z,23.50
2023-05-17T18:19:45.697Z,23.43
2023-05-17T18:22:22.027Z,23.30
2023-05-17T18:24:54.391Z,23.25
2023-05-17T18:27:25.865Z,23.30
2023-05-17T18:29:56.218Z,23.20
2023-05-17T18:32:26.522Z,23.20
2023-05-17T18:34:58.351Z,23.13
2023-05-17T18:37:29.386Z,23.13
2023-05-17T18:40:01.198Z,23.11
2023-05-17T18:42:32.448Z,23.15
2023-05-17T18:45:02.701Z,23.06
2023-05-17T18:47:34.132Z,23.04
2023-05-17T18:50:04.740Z,22.96
2023-05-17T18:52:34.982Z,22.89
2023-05-17T18:55:05.293Z,22.89
2023-05-17T18:57:35.465Z,22.87
2023-05-17T19:00:06.375Z,22.82
2023-05-17T19:02:37.869Z,22.77
2023-05-17T19:05:10.046Z,22.72
2023-05-17T19:07:40.595Z,22.69
2023-05-17T19:10:11.276Z,22.70
2023-05-17T19:12:42.584Z,22.62
2023-05-17T19:15:15.278Z,22.53
2023-05-17T19:17:45.815Z,22.51
2023-05-17T19:20:16.800Z,22.43
2023-05-17T19:22:47.029Z,22.43
2023-05-17T19:25:20.315Z,22.35
2023-05-17T19:27:52.556Z,22.32
2023-05-17T19:30:23.822Z,22.42
2023-05-17T19:32:55.364Z,22.28
2023-05-17T19:35:26.927Z,22.23
2023-05-17T19:38:02.415Z,22.15
2023-05-17T19:40:33.663Z,22.08
2023-05-17T19:43:04.337Z,22.02
2023-05-17T19:45:34.976Z,21.97
2023-05-17T19:48:08.770Z,21.92
2023-05-17T19:50:40.049Z,21.90
2023-05-17T19:53:10.525Z,21.87
2023-05-17T19:55:42.170Z,21.82
2023-05-17T19:58:12.512Z,21.68
2023-05-17T20:00:44.262Z,21.68
2023-05-17T20:03:17.849Z,21.62
2023-05-17T20:05:51.350Z,21.51
2023-05-17T20:08:22.333Z,21.51
2023-05-17T20:10:53.919Z,21.43
2023-05-17T20:13:30.686Z,21.37
2023-05-17T20:16:02.872Z,21.27
2023-05-17T20:18:35.360Z,21.23
2023-05-17T20:21:19.683Z,21.22
2023-05-17T20:23:50.193Z,21.17
2023-05-17T20:26:27.901Z,21.10
2023-05-17T20:28:59.729Z,21.07
2023-05-17T20:31:30.395Z,21.03
2023-05-17T20:34:02.441Z,20.96
2023-05-17T20:36:34.285Z,20.95
2023-05-17T20:39:05.897Z,20.90
2023-05-17T20:41:36.599Z,20.92
2023-05-17T20:44:14.948Z,20.90
2023-05-17T20:46:50.562Z,20.89
2023-05-17T20:49:21.318Z,20.82
2023-05-17T20:51:51.662Z,20.77
2023-05-17T20:54:22.563Z,20.77
2023-05-17T20:56:53.182Z,20.75
2023-05-17T20:59:24.773Z,20.73
2023-05-17T21:01:56.393Z,20.69
2023-05-17T21:04:30.011Z,20.68
2023-05-17T21:07:02.142Z,20.68
2023-05-17T21:09:34.150Z,20.68
2023-05-17T21:12:04.618Z,20.71
2023-05-17T21:14:34.748Z,20.69
2023-05-17T21:17:05.824Z,20.71
2023-05-17T21:19:39.882Z,20.66
2023-05-17T21:22:10.525Z,20.61
2023-05-17T21:24:41.125Z,20.64
2023-05-17T21:27:14.879Z,20.64
2023-05-17T21:29:46.501Z,20.68
2023-05-17T21:32:18.891Z,20.69
2023-05-17T21:34:51.002Z,20.59
2023-05-17T21:37:23.531Z,20.61
2023-05-17T21:39:54.500Z,20.59
2023-05-17T21:42:25.707Z,20.58
2023-05-17T21:44:56.126Z,20.58
2023-05-17T21:47:27.383Z,20.59
2023-05-17T21:49:58.710Z,20.53
2023-05-17T21:52:30.198Z,20.28
2023-05-17T21:55:01.122Z,20.04
2023-05-17T21:57:31.885Z,19.95
2023-05-17T22:00:03.961Z,19.85
2023-05-17T22:02:38.288Z,19.77
2023-05-17T22:05:10.533Z,19.73
2023-05-17T22:07:44.760Z,19.62
2023-05-17T22:10:16.719Z,19.56
2023-05-17T22:12:49.401Z,19.47
2023-05-17T22:15:24.847Z,19.39
2023-05-17T22:17:56.556Z,19.40
2023-05-17T22:20:31.415Z,19.36
2023-05-17T22:23:03.108Z,19.30
2023-05-17T22:25:37.471Z,19.32
2023-05-17T22:28:08.422Z,19.18
2023-05-17T22:30:39.724Z,19.12
2023-05-17T22:33:16.185Z,19.09
2023-05-17T22:35:48.188Z,19.03
2023-05-17T22:41:15.313Z,19.00
2023-05-17T22:43:48.018Z,18.96
2023-05-17T22:46:22.882Z,18.96
2023-05-17T22:49:01.669Z,18.95
2023-05-17T22:51:36.452Z,18.91
2023-05-17T22:54:11.748Z,18.92
2023-05-17T22:56:44.132Z,18.89
2023-05-17T22:59:18.974Z,18.89
2023-05-17T23:01:50.620Z,18.88
2023-05-17T23:04:29.849Z,18.87
2023-05-17T23:07:06.638Z,18.85
2023-05-17T23:09:43.525Z,18.85
2023-05-17T23:12:15.461Z,18.82
2023-05-17T23:14:46.153Z,18.79
2023-05-17T23:17:18.662Z,18.81
2023-05-17T23:19:54.070Z,18.76
2023-05-17T23:22:26.051Z,18.78
2023-05-17T23:25:02.560Z,18.76
2023-05-17T23:27:33.894Z,18.73
2023-05-17T23:30:10.660Z,18.71
2023-05-17T23:32:41.829Z,18.69
2023-05-17T23:35:15.381Z,18.69
2023-05-17T23:37:48.868Z,18.71
2023-05-17T23:40:21.715Z,18.69
2023-05-17T23:42:52.911Z,18.69
2023-05-17T23:45:28.188Z,18.67
2023-05-17T23:48:05.044Z,18.65
2023-05-17T23:50:35.746Z,18.65
2023-05-17T23:53:10.105Z,18.65
2023-05-17T23:55:47.313Z,18.64
2023-05-17T23:58:19.549Z,18.67
